createdAt,value
2022-12-16T00:01:12.879Z,-10.68
2022-12-16T00:03:40.713Z,-10.66
2022-12-16T00:06:08.816Z,-10.64
2022-12-16T00:08:37.600Z,-10.69
2022-12-16T00:11:04.755Z,-10.72
2022-12-16T00:13:33.123Z,-10.74
2022-12-16T00:16:03.878Z,-10.81
2022-12-16T00:18:30.324Z,-10.88
2022-12-16T00:20:56.801Z,-10.98
2022-12-16T00:23:23.632Z,-10.99
2022-12-16T00:25:50.151Z,-11.00
2022-12-16T00:28:22.497Z,-11.00
2022-12-16T00:30:51.348Z,-10.97
2022-12-16T00:33:19.862Z,-11.01
2022-12-16T00:35:46.973Z,-11.10
2022-12-16T00:38:14.414Z,-11.11
2022-12-16T00:40:41.840Z,-11.14
2022-12-16T00:43:08.209Z,-11.21
2022-12-16T00:45:34.865Z,-11.19
2022-12-16T00:48:01.435Z,-11.17
2022-12-16T00:50:27.891Z,-11.10
2022-12-16T00:52:54.273Z,-11.14
2022-12-16T00:55:21.656Z,-11.17
2022-12-16T00:57:48.082Z,-11.12
2022-12-16T01:00:16.137Z,-11.15
2022-12-16T01:02:44.633Z,-11.15
2022-12-16T01:05:13.424Z,-11.24
2022-12-16T01:07:39.818Z,-11.21
2022-12-16T01:10:07.981Z,-11.19
2022-12-16T01:12:35.601Z,-11.15
2022-12-16T01:15:03.468Z,-11.11
2022-12-16T01:17:29.867Z,-11.11
2022-12-16T01:19:56.258Z,-11.05
2022-12-16T01:22:23.090Z,-11.12
2022-12-16T01:24:49.518Z,-11.16
2022-12-16T01:27:16.342Z,-11.22
2022-12-16T01:29:43.338Z,-11.26
2022-12-16T01:32:13.430Z,-11.30
2022-12-16T01:34:40.424Z,-11.25
2022-12-16T01:37:07.403Z,-11.22
2022-12-16T01:39:33.747Z,-11.22
2022-12-16T01:42:00.110Z,-11.24
2022-12-16T01:44:26.954Z,-11.23
2022-12-16T01:47:00.674Z,-11.20
2022-12-16T01:49:31.152Z,-11.22
2022-12-16T01:52:04.196Z,-11.25
2022-12-16T01:54:55.356Z,-11.28
2022-12-16T01:57:27.535Z,-11.29
2022-12-16T01:59:55.761Z,-11.32
2022-12-16T02:02:23.146Z,-11.36
2022-12-16T02:05:08.501Z,-11.28
2022-12-16T02:07:34.952Z,-11.20
2022-12-16T02:10:01.622Z,-11.16
2022-12-16T02:12:46.543Z,-11.10
2022-12-16T02:15:24.827Z,-11.09
2022-12-16T02:18:02.495Z,-11.17
2022-12-16T02:21:09.958Z,-11.25
2022-12-16T02:23:51.615Z,-11.20
2022-12-16T02:26:29.354Z,-11.20
2022-12-16T02:29:32.649Z,-11.19
2022-12-16T02:32:08.547Z,-11.25
2022-12-16T02:34:53.655Z,-11.40
2022-12-16T02:37:53.631Z,-11.42
2022-12-16T02:40:33.241Z,-11.49
2022-12-16T02:43:45.575Z,-11.41
2022-12-16T02:46:12.073Z,-11.44
2022-12-16T02:48:38.504Z,-11.51
2022-12-16T02:51:04.985Z,-11.54
2022-12-16T02:53:34.715Z,-11.56
2022-12-16T02:56:08.655Z,-11.48
2022-12-16T02:59:13.108Z,-11.43
2022-12-16T03:01:59.966Z,-11.51
2022-12-16T03:04:49.655Z,-11.52
2022-12-16T03:07:19.276Z,-11.43
2022-12-16T03:09:48.146Z,-11.38
2022-12-16T03:12:18.264Z,-11.38
2022-12-16T03:14:48.442Z,-11.40
2022-12-16T03:17:16.587Z,-11.38
2022-12-16T03:19:50.781Z,-11.40
2022-12-16T03:22:28.919Z,-11.44
2022-12-16T03:24:55.695Z,-11.40
2022-12-16T03:27:32.911Z,-11.39
2022-12-16T03:30:09.513Z,-11.43
2022-12-16T03:32:55.780Z,-11.39
2022-12-16T03:35:28.541Z,-11.40
2022-12-16T03:37:58.080Z,-11.36
2022-12-16T03:40:27.832Z,-11.41
2022-12-16T03:42:56.852Z,-11.42
2022-12-16T03:45:30.563Z,-11.38
2022-12-16T03:47:59.132Z,-11.32
2022-12-16T03:50:29.792Z,-11.30
2022-12-16T03:52:56.414Z,-11.27
2022-12-16T03:55:23.308Z,-11.22
2022-12-16T03:57:49.829Z,-11.15
2022-12-16T04:00:16.484Z,-11.16
2022-12-16T04:02:43.773Z,-11.08
2022-12-16T04:05:10.821Z,-11.00
2022-12-16T04:07:37.161Z,-10.94
2022-12-16T04:10:05.289Z,-10.87
2022-12-16T04:12:50.371Z,-10.78
2022-12-16T04:15:19.772Z,-10.72
2022-12-16T04:18:04.775Z,-10.67
2022-12-16T04:20:55.518Z,-10.67
2022-12-16T04:23:43.879Z,-10.61
2022-12-16T04:26:10.763Z,-10.46
2022-12-16T04:28:37.080Z,-10.35
2022-12-16T04:31:03.641Z,-10.28
2022-12-16T04:33:48.974Z,-10.21
2022-12-16T04:36:34.029Z,-10.29
2022-12-16T04:39:18.969Z,-10.30
2022-12-16T04:42:04.088Z,-10.20
2022-12-16T04:44:49.262Z,-10.12
2022-12-16T04:47:34.505Z,-10.08
2022-12-16T04:50:19.222Z,-10.05
2022-12-16T04:53:04.279Z,-9.96
2022-12-16T04:55:49.447Z,-9.96
2022-12-16T04:58:34.313Z,-9.98
2022-12-16T05:01:19.259Z,-9.93
2022-12-16T05:04:11.900Z,-9.97
2022-12-16T05:06:56.616Z,-9.91
2022-12-16T05:09:41.435Z,-9.90
2022-12-16T05:12:26.557Z,-9.81
2022-12-16T05:15:11.172Z,-9.79
2022-12-16T05:17:56.003Z,-9.79
2022-12-16T05:20:40.741Z,-9.71
2022-12-16T05:23:25.572Z,-9.74
2022-12-16T05:26:10.307Z,-9.68
2022-12-16T05:28:55.130Z,-9.73
2022-12-16T05:31:39.881Z,-9.78
2022-12-16T05:34:24.736Z,-9.73
2022-12-16T05:37:09.420Z,-9.75
2022-12-16T05:39:54.411Z,-9.72
2022-12-16T05:42:39.324Z,-9.68
2022-12-16T05:45:24.530Z,-9.64
2022-12-16T05:48:09.391Z,-9.61
2022-12-16T05:50:55.355Z,-9.55
2022-12-16T05:53:40.811Z,-9.51
2022-12-16T05:56:25.568Z,-9.49
2022-12-16T05:59:10.436Z,-9.44
2022-12-16T06:01:55.452Z,-9.39
2022-12-16T06:04:40.451Z,-9.39
2022-12-16T06:07:25.482Z,-9.50
2022-12-16T06:10:10.280Z,-9.69
2022-12-16T06:12:55.304Z,-9.82
2022-12-16T06:15:39.962Z,-9.91
2022-12-16T06:18:24.684Z,-9.95
2022-12-16T06:21:09.454Z,-10.03
2022-12-16T06:24:04.838Z,-10.01
2022-12-16T06:26:49.562Z,-10.04
2022-12-16T06:29:34.786Z,-10.04
2022-12-16T06:32:19.668Z,-10.12
2022-12-16T06:35:04.734Z,-10.11
2022-12-16T06:37:49.806Z,-10.13
2022-12-16T06:40:34.757Z,-10.20
2022-12-16T06:43:19.874Z,-10.21
2022-12-16T06:46:04.817Z,-10.36
2022-12-16T06:48:49.642Z,-10.42
2022-12-16T06:51:34.621Z,-10.51
2022-12-16T06:54:19.365Z,-10.62
2022-12-16T06:57:04.226Z,-10.71
2022-12-16T06:59:48.969Z,-10.69
2022-12-16T07:02:33.921Z,-10.71
2022-12-16T07:05:19.014Z,-10.74
2022-12-16T07:08:08.001Z,-10.75
2022-12-16T07:10:54.952Z,-10.74
2022-12-16T07:13:40.462Z,-10.78
2022-12-16T07:16:25.349Z,-10.85
2022-12-16T07:19:10.254Z,-10.95
2022-12-16T07:21:55.290Z,-11.03
2022-12-16T07:24:40.004Z,-11.03
2022-12-16T07:27:25.019Z,-11.07
2022-12-16T07:30:09.978Z,-11.11
2022-12-16T07:32:54.776Z,-11.20
2022-12-16T07:35:39.732Z,-11.34
2022-12-16T07:38:24.501Z,-11.46
2022-12-16T07:41:09.352Z,-11.52
2022-12-16T07:43:54.126Z,-11.48
2022-12-16T07:46:38.854Z,-11.44
2022-12-16T07:49:23.933Z,-11.40
2022-12-16T07:52:08.874Z,-11.48
2022-12-16T07:54:53.496Z,-11.47
2022-12-16T07:57:40.413Z,-11.44
2022-12-16T08:00:25.828Z,-11.48
2022-12-16T08:03:12.596Z,-11.50
2022-12-16T08:05:57.843Z,-11.53
2022-12-16T08:08:42.805Z,-11.52
2022-12-16T08:11:27.483Z,-11.49
2022-12-16T08:14:12.198Z,-11.40
2022-12-16T08:16:56.827Z,-11.39
2022-12-16T08:19:41.724Z,-11.32
2022-12-16T08:22:26.972Z,-11.30
2022-12-16T08:25:11.680Z,-11.31
2022-12-16T08:27:56.607Z,-11.31
2022-12-16T08:30:41.762Z,-11.28
2022-12-16T08:33:26.626Z,-11.20
2022-12-16T08:36:11.439Z,-11.14
2022-12-16T08:38:56.273Z,-10.95
2022-12-16T08:41:41.036Z,-10.75
2022-12-16T08:44:30.346Z,-10.59
2022-12-16T08:47:15.407Z,-10.39
2022-12-16T08:50:02.175Z,-10.31
2022-12-16T08:52:48.249Z,-10.19
2022-12-16T08:55:32.974Z,-10.00
2022-12-16T08:58:17.816Z,-9.82
2022-12-16T09:01:07.045Z,-9.69
2022-12-16T09:03:53.194Z,-9.65
2022-12-16T09:06:40.705Z,-9.50
2022-12-16T09:09:26.068Z,-9.29
2022-12-16T09:12:11.048Z,-9.12
2022-12-16T09:14:56.218Z,-8.93
2022-12-16T09:17:41.339Z,-8.80
2022-12-16T09:20:26.737Z,-8.72
2022-12-16T09:23:11.974Z,-8.60
2022-12-16T09:25:59.777Z,-8.56
2022-12-16T09:28:44.666Z,-8.50
2022-12-16T09:31:29.399Z,-8.46
2022-12-16T09:34:14.451Z,-8.33
2022-12-16T09:36:59.485Z,-8.35
2022-12-16T09:39:44.345Z,-8.36
2022-12-16T09:43:01.215Z,-8.23
2022-12-16T09:46:17.100Z,-8.18
2022-12-16T09:49:34.395Z,-8.06
2022-12-16T09:52:21.734Z,-7.89
2022-12-16T09:55:07.492Z,-7.78
2022-12-16T09:57:55.545Z,-7.70
2022-12-16T10:00:47.217Z,-7.56
2022-12-16T10:03:45.034Z,-7.41
2022-12-16T10:07:00.266Z,-7.22
2022-12-16T10:10:12.124Z,-7.15
2022-12-16T10:13:00.332Z,-7.03
2022-12-16T10:15:58.954Z,-7.01
2022-12-16T10:18:51.245Z,-7.09
2022-12-16T10:21:44.665Z,-6.99
2022-12-16T10:24:46.544Z,-6.86
2022-12-16T10:27:37.765Z,-6.88
2022-12-16T10:30:30.936Z,-6.82
2022-12-16T10:33:37.347Z,-6.69
2022-12-16T10:36:23.734Z,-6.59
2022-12-16T10:39:21.786Z,-6.52
2022-12-16T10:42:10.308Z,-6.48
2022-12-16T10:45:19.664Z,-6.49
2022-12-16T10:48:04.482Z,-6.56
2022-12-16T10:50:49.740Z,-6.48
2022-12-16T10:53:37.885Z,-6.43
2022-12-16T10:56:48.191Z,-6.32
2022-12-16T10:59:33.656Z,-6.35
2022-12-16T11:02:21.607Z,-6.29
2022-12-16T11:05:07.952Z,-6.25
2022-12-16T11:08:02.669Z,-6.22
2022-12-16T11:10:55.970Z,-6.30
2022-12-16T11:13:43.579Z,-6.34
2022-12-16T11:16:48.955Z,-6.30
2022-12-16T11:19:45.674Z,-6.26
2022-12-16T11:22:42.249Z,-6.20
2022-12-16T11:25:39.490Z,-6.16
2022-12-16T11:28:36.329Z,-6.13
2022-12-16T11:31:24.944Z,-6.05
2022-12-16T11:34:12.473Z,-5.96
2022-12-16T11:36:59.713Z,-5.90
2022-12-16T11:39:47.528Z,-5.80
2022-12-16T11:42:42.426Z,-5.76
2022-12-16T11:45:32.925Z,-5.66
2022-12-16T11:48:42.706Z,-5.56
2022-12-16T11:51:32.980Z,-5.51
2022-12-16T11:54:29.672Z,-5.44
2022-12-16T11:57:16.497Z,-5.33
2022-12-16T12:00:11.909Z,-5.28
2022-12-16T12:03:03.103Z,-5.20
2022-12-16T12:05:59.942Z,-5.17
2022-12-16T12:08:57.296Z,-5.09
2022-12-16T12:11:53.775Z,-4.98
2022-12-16T12:15:04.858Z,-4.92
2022-12-16T12:18:20.506Z,-4.85
2022-12-16T12:22:10.740Z,-4.79
2022-12-16T12:25:11.779Z,-4.73
2022-12-16T12:27:56.796Z,-4.72
2022-12-16T12:30:42.932Z,-4.67
2022-12-16T12:33:39.071Z,-4.64
2022-12-16T12:36:38.262Z,-4.65
2022-12-16T12:39:58.517Z,-4.58
2022-12-16T12:42:55.080Z,-4.54
2022-12-16T12:45:47.443Z,-4.49
2022-12-16T12:48:44.914Z,-4.45
2022-12-16T12:51:37.997Z,-4.36
2022-12-16T12:54:51.768Z,-4.30
2022-12-16T12:57:41.769Z,-4.32
2022-12-16T13:00:39.389Z,-4.32
2022-12-16T13:03:48.547Z,-4.28
2022-12-16T13:06:35.154Z,-4.29
2022-12-16T13:09:20.858Z,-4.25
2022-12-16T13:12:27.673Z,-4.27
2022-12-16T13:15:23.349Z,-4.25
2022-12-16T13:18:20.504Z,-4.26
2022-12-16T13:21:08.658Z,-4.22
2022-12-16T13:23:58.702Z,-4.24
2022-12-16T13:26:46.150Z,-4.23
2022-12-16T13:29:44.327Z,-4.23
2022-12-16T13:32:40.209Z,-4.24
2022-12-16T13:35:28.449Z,-4.28
2022-12-16T13:38:17.710Z,-4.26
2022-12-16T13:41:16.611Z,-4.32
2022-12-16T13:44:09.524Z,-4.41
2022-12-16T13:47:00.891Z,-4.46
2022-12-16T13:49:54.921Z,-4.48
2022-12-16T13:52:58.407Z,-4.56
2022-12-16T13:55:46.135Z,-4.63
2022-12-16T13:58:58.939Z,-4.64
2022-12-16T14:01:55.227Z,-4.67
2022-12-16T14:04:51.940Z,-4.72
2022-12-16T14:07:39.809Z,-4.77
2022-12-16T14:10:25.506Z,-4.80
2022-12-16T14:13:44.054Z,-4.84
2022-12-16T14:17:06.966Z,-4.91
2022-12-16T14:19:51.876Z,-4.96
2022-12-16T14:23:47.352Z,-5.05
2022-12-16T14:26:22.454Z,-5.11
2022-12-16T14:29:08.065Z,-5.16
2022-12-16T14:31:59.245Z,-5.27
2022-12-16T14:34:47.846Z,-5.34
2022-12-16T14:37:35.777Z,-5.45
2022-12-16T14:40:22.117Z,-5.56
2022-12-16T14:43:12.841Z,-5.61
2022-12-16T14:46:06.024Z,-5.72
2022-12-16T14:48:54.800Z,-5.79
2022-12-16T14:51:51.609Z,-5.90
2022-12-16T14:54:43.805Z,-5.97
2022-12-16T14:57:31.438Z,-6.10
2022-12-16T15:00:28.378Z,-6.18
2022-12-16T15:03:34.133Z,-6.28
2022-12-16T15:06:22.913Z,-6.36
2022-12-16T15:09:22.945Z,-6.42
2022-12-16T15:12:12.852Z,-6.48
2022-12-16T15:14:59.352Z,-6.56
2022-12-16T15:18:03.357Z,-6.66
2022-12-16T15:20:51.673Z,-6.74
2022-12-16T15:23:46.691Z,-6.83
2022-12-16T15:26:40.830Z,-6.92
2022-12-16T15:29:52.921Z,-6.98
2022-12-16T15:32:55.755Z,-7.01
2022-12-16T15:35:57.275Z,-7.10
2022-12-16T15:38:48.280Z,-7.22
2022-12-16T15:41:41.711Z,-7.20
2022-12-16T15:44:43.660Z,-7.20
2022-12-16T15:47:50.496Z,-7.26
2022-12-16T15:50:39.151Z,-7.33
2022-12-16T15:53:42.949Z,-7.40
2022-12-16T15:56:40.407Z,-7.46
2022-12-16T15:59:41.269Z,-7.54
2022-12-16T16:02:35.703Z,-7.57
2022-12-16T16:05:21.408Z,-7.62
2022-12-16T16:08:06.305Z,-7.66
2022-12-16T16:10:51.809Z,-7.69
2022-12-16T16:13:41.134Z,-7.74
2022-12-16T16:16:28.796Z,-7.84
2022-12-16T16:19:14.036Z,-7.84
2022-12-16T16:21:58.950Z,-7.97
2022-12-16T16:24:43.658Z,-7.96
2022-12-16T16:27:31.978Z,-8.03
2022-12-16T16:30:18.418Z,-8.03
2022-12-16T16:33:04.184Z,-8.05
2022-12-16T16:35:50.989Z,-8.07
2022-12-16T16:38:36.346Z,-8.11
2022-12-16T16:41:21.630Z,-8.20
2022-12-16T16:44:06.675Z,-8.23
2022-12-16T16:46:58.829Z,-8.21
2022-12-16T16:49:48.132Z,-8.19
2022-12-16T16:52:38.982Z,-8.19
2022-12-16T16:55:25.631Z,-8.21
2022-12-16T16:58:10.490Z,-8.29
2022-12-16T17:00:55.334Z,-8.32
2022-12-16T17:03:41.285Z,-8.32
2022-12-16T17:06:26.772Z,-8.37
2022-12-16T17:09:11.390Z,-8.39
2022-12-16T17:11:57.327Z,-8.41
2022-12-16T17:14:42.052Z,-8.47
2022-12-16T17:17:28.379Z,-8.48
2022-12-16T17:20:13.007Z,-8.46
2022-12-16T17:22:57.801Z,-8.52
2022-12-16T17:25:42.413Z,-8.57
2022-12-16T17:28:29.153Z,-8.68
2022-12-16T17:31:14.593Z,-8.73
2022-12-16T17:33:59.378Z,-8.76
2022-12-16T17:36:44.672Z,-8.75
2022-12-16T17:39:29.918Z,-8.63
2022-12-16T17:42:15.652Z,-8.59
2022-12-16T17:45:00.456Z,-8.56
2022-12-16T17:47:45.225Z,-8.51
2022-12-16T17:50:30.083Z,-8.37
2022-12-16T17:53:16.195Z,-8.24
2022-12-16T17:56:01.998Z,-8.16
2022-12-16T17:58:53.157Z,-7.98
2022-12-16T18:01:38.475Z,-7.85
2022-12-16T18:04:24.330Z,-7.75
2022-12-16T18:07:09.600Z,-7.64
2022-12-16T18:09:54.224Z,-7.48
2022-12-16T18:12:39.967Z,-7.32
2022-12-16T18:15:25.637Z,-7.15
2022-12-16T18:18:10.314Z,-7.05
2022-12-16T18:20:55.047Z,-6.90
2022-12-16T18:23:39.895Z,-6.81
2022-12-16T18:26:30.910Z,-6.76
2022-12-16T18:29:15.688Z,-6.68
2022-12-16T18:32:00.814Z,-6.60
2022-12-16T18:34:45.764Z,-6.46
2022-12-16T18:37:31.705Z,-6.39
2022-12-16T18:40:17.022Z,-6.30
2022-12-16T18:43:01.800Z,-6.34
2022-12-16T18:45:46.718Z,-6.34
2022-12-16T18:48:31.837Z,-6.28
2022-12-16T18:51:29.634Z,-6.27
2022-12-16T18:54:14.413Z,-6.26
2022-12-16T18:56:59.148Z,-6.19
2022-12-16T18:59:44.025Z,-6.11
2022-12-16T19:02:28.842Z,-6.04
2022-12-16T19:05:13.956Z,-5.98
2022-12-16T19:07:58.673Z,-5.94
2022-12-16T19:10:43.549Z,-5.76
2022-12-16T19:13:32.858Z,-5.75
2022-12-16T19:16:21.761Z,-5.66
2022-12-16T19:19:07.171Z,-5.70
2022-12-16T19:21:56.551Z,-5.65
2022-12-16T19:24:43.006Z,-5.58
2022-12-16T19:27:28.355Z,-5.57
2022-12-16T19:30:13.162Z,-5.51
2022-12-16T19:32:58.903Z,-5.42
2022-12-16T19:35:43.720Z,-5.44
2022-12-16T19:38:32.628Z,-5.36
2022-12-16T19:41:17.363Z,-5.34
2022-12-16T19:47:15.031Z,-5.32
2022-12-16T19:50:00.228Z,-5.34
2022-12-16T19:52:44.886Z,-5.25
2022-12-16T19:55:29.728Z,-5.16
2022-12-16T19:58:14.525Z,-5.27
2022-12-16T20:00:59.811Z,-5.26
2022-12-16T20:03:45.086Z,-5.24
2022-12-16T20:06:30.353Z,-5.19
2022-12-16T20:09:15.369Z,-5.12
2022-12-16T20:12:01.664Z,-5.21
2022-12-16T20:14:47.678Z,-5.23
2022-12-16T20:17:32.928Z,-5.21
2022-12-16T20:20:17.725Z,-5.19
2022-12-16T20:23:02.790Z,-5.16
2022-12-16T20:25:48.128Z,-5.15
2022-12-16T20:28:33.403Z,-5.18
2022-12-16T20:31:19.265Z,-5.16
2022-12-16T20:34:04.272Z,-5.10
2022-12-16T20:36:54.010Z,-5.03
2022-12-16T20:39:42.058Z,-5.06
2022-12-16T20:42:27.405Z,-5.09
2022-12-16T20:45:12.179Z,-5.18
2022-12-16T20:47:57.136Z,-5.16
2022-12-16T20:50:41.898Z,-5.13
2022-12-16T20:53:26.692Z,-5.15
2022-12-16T20:56:11.619Z,-5.11
2022-12-16T20:58:56.456Z,-5.12
2022-12-16T21:01:47.961Z,-5.13
2022-12-16T21:04:40.760Z,-5.18
2022-12-16T21:07:25.596Z,-5.11
2022-12-16T21:10:10.367Z,-5.09
2022-12-16T21:12:55.466Z,-5.05
2022-12-16T21:15:43.021Z,-5.04
2022-12-16T21:18:27.794Z,-5.04
2022-12-16T21:21:13.582Z,-5.10
2022-12-16T21:24:00.942Z,-5.08
2022-12-16T21:26:45.815Z,-5.02
2022-12-16T21:29:30.697Z,-5.03
2022-12-16T21:32:15.360Z,-5.06
2022-12-16T21:35:00.519Z,-4.99
2022-12-16T21:37:45.537Z,-4.96
2022-12-16T21:40:30.330Z,-4.98
2022-12-16T21:43:14.924Z,-4.97
2022-12-16T21:46:00.036Z,-4.96
2022-12-16T21:48:45.022Z,-4.98
2022-12-16T21:51:30.273Z,-5.00
2022-12-16T21:54:15.280Z,-5.00
2022-12-16T21:57:00.095Z,-5.09
2022-12-16T21:59:44.732Z,-5.08
2022-12-16T22:02:32.552Z,-5.00
2022-12-16T22:05:17.790Z,-4.98
2022-12-16T22:08:03.413Z,-4.96
2022-12-16T22:10:48.653Z,-4.96
2022-12-16T22:13:33.456Z,-5.04
2022-12-16T22:16:18.595Z,-5.12
2022-12-16T22:19:04.017Z,-5.12
2022-12-16T22:21:49.202Z,-5.15
2022-12-16T22:24:33.926Z,-5.10
2022-12-16T22:27:18.688Z,-5.15
2022-12-16T22:30:03.522Z,-5.14
2022-12-16T22:32:48.398Z,-5.07
2022-12-16T22:35:33.609Z,-5.10
2022-12-16T22:38:18.370Z,-5.12
2022-12-16T22:41:12.722Z,-5.10
2022-12-16T22:43:57.673Z,-5.15
2022-12-16T22:46:42.511Z,-5.10
2022-12-16T22:49:27.486Z,-5.16
2022-12-16T22:52:12.334Z,-5.17
2022-12-16T22:55:00.747Z,-5.12
2022-12-16T22:57:47.245Z,-4.98
2022-12-16T23:00:32.830Z,-5.01
2022-12-16T23:03:19.484Z,-4.98
2022-12-16T23:06:04.844Z,-5.02
2022-12-16T23:08:50.102Z,-5.02
2022-12-16T23:11:41.590Z,-5.04
2022-12-16T23:14:26.425Z,-5.05
2022-12-16T23:17:11.590Z,-5.07
2022-12-16T23:19:56.609Z,-5.10
2022-12-16T23:22:41.717Z,-5.08
2022-12-16T23:25:27.075Z,-5.04
2022-12-16T23:28:12.242Z,-5.04
2022-12-16T23:30:57.280Z,-5.03
2022-12-16T23:33:42.145Z,-5.05
2022-12-16T23:36:27.460Z,-5.02
2022-12-16T23:39:12.368Z,-4.86
2022-12-16T23:41:57.128Z,-5.10
2022-12-16T23:44:42.112Z,-5.22
2022-12-16T23:47:26.860Z,-5.27
2022-12-16T23:50:15.778Z,-5.28
2022-12-16T23:53:01.056Z,-5.25
2022-12-16T23:55:45.706Z,-5.20
2022-12-16T23:58:30.413Z,-5.21
